Flight Track Log - Related Links

Times and Time Zones

All times are in EDT time to prevent confusion due to time zone crossing. See the N700XF flight status page for this flight to view local times or setup timezone preferences in your user account.

Time Position Orientation Groundspeed Altitude Reporting Facility
EDT Latitude Longitude Course Direction KTS MPH feet Rate Location/Type
Fri 04:05:05 PM 40.8253 -77.9428 260° West 132 152 5,400  Level New York Center
Fri 04:05:21 PM 40.8231 -77.9600 260° West 136 157 6,200 3,789 Climbing Cleveland Center
Fri 04:06:21 PM 40.8083 -78.0539 258° West 194 223 10,200 3,650 Climbing Cleveland Center
Fri 04:07:21 PM 40.7875 -78.1533 255° West 248 285 13,500 2,750 Climbing Cleveland Center
Fri 04:08:21 PM 40.7628 -78.2667 254° West 294 338 15,700 1,250 Climbing Cleveland Center
Fri 04:09:21 PM 40.7383 -78.3908 255° West 333 383 16,000 150 Climbing Cleveland Center
Fri 04:10:21 PM 40.7075 -78.5261 253° West 352 405 16,000 -250 Level Cleveland Center
Fri 04:11:21 PM 40.6803 -78.6500 254° West 352 405 15,500 -950 Descending Cleveland Center
Fri 04:12:21 PM 40.6533 -78.7742 254° West 357 411 14,100 -1,400 Descending Cleveland Center
Fri 04:13:21 PM 40.6258 -78.8981 254° West 362 417 12,700 -1,500 Descending Cleveland Center
Fri 04:13:53 PM 40.6103 -78.9639 253° West 348 400 11,800 -1,400 Descending Cleveland Center
Fri 04:14:21 PM 40.6006 -79.0189 257° West 357 411 11,300 -1,364 Descending Cleveland Center
Fri 04:14:59 PM 40.5806 -79.0933 251° West 346 398 10,300 -1,400 Descending Cleveland Center
Fri 04:15:21 PM 40.5708 -79.1372 254° West 357 411 9,900 -590 Descending Cleveland Center
Fri 04:16:00 PM 40.5569 -79.2031 255° West 301 346 9,700 -600 Descending Cleveland Center
Fri 04:16:21 PM 40.5492 -79.2386 254° West 333 383 9,300 -1,770 Descending Cleveland Center
Fri 04:17:01 PM 40.5353 -79.3019 254° West 267 307 7,900 -1,800 Descending Cleveland Center
Fri 04:17:21 PM 40.5294 -79.3375 258° West 292 336 7,500 -1,778 Descending Cleveland Center
Fri 04:17:55 PM 40.5153 -79.3925 251° West 281 323 6,300 -1,800 Descending Cleveland Center
Fri 04:18:21 PM 40.5075 -79.4333 256° West 286 329 5,700 -907 Descending Cleveland Center
Fri 04:19:21 PM 40.4792 -79.5239 248° West 280 322 5,000 -550 Descending Cleveland Center
Fri 04:20:21 PM 40.4486 -79.6092 245° Southwest 266 306 4,600 -1,000 Descending Cleveland Center
Fri 04:21:21 PM 40.4139 -79.6969 243° Southwest 266 306 3,000 -850 Descending Cleveland Center
Fri 04:22:21 PM 40.3811 -79.7764 242° Southwest 267 307 2,900 -100 Descending Cleveland Center
Fri 04:23:21 PM 40.3608 -79.8364 246° West 227 261 2,800 -100 Descending Cleveland Center
Fri 04:25:00 PM 40.3500 -79.9167 270° West  Level FlightAware Approximate
Fri 04:32:00 PM 40.3544 -79.9302 270° West  Level Estimated
Fri 04:33:00 PM 40.3544 -79.9302 270° West  Level Estimated
Fri 04:34:00 PM 40.3544 -79.9302 270° West  Level Estimated
Fri 04:35:00 PM 40.3544 -79.9302 270° West  Level Estimated

Login

Don't have an account? Register now (free) for customized features, flight alerts, and more!